createdAt,value
2022-12-18T00:00:08.063Z,-4.30
2022-12-18T00:02:37.113Z,-4.50
2022-12-18T00:05:06.491Z,-4.70
2022-12-18T00:07:34.340Z,-4.60
2022-12-18T00:10:01.391Z,-4.60
2022-12-18T00:12:30.059Z,-4.60
2022-12-18T00:14:57.103Z,-4.50
2022-12-18T00:17:23.792Z,-4.40
2022-12-18T00:19:53.676Z,-4.20
2022-12-18T00:22:20.707Z,-4.10
2022-12-18T00:24:48.591Z,-4.30
2022-12-18T00:27:16.431Z,-4.50
2022-12-18T00:29:44.325Z,-4.50
2022-12-18T00:32:13.039Z,-4.50
2022-12-18T00:34:40.944Z,-4.60
2022-12-18T00:37:07.919Z,-4.70
2022-12-18T00:39:35.879Z,-4.70
2022-12-18T00:42:21.293Z,-4.70
2022-12-18T00:44:48.324Z,-4.90
2022-12-18T00:47:15.380Z,-4.50
2022-12-18T00:49:42.404Z,-4.60
2022-12-18T00:52:10.676Z,-4.70
2022-12-18T00:54:39.385Z,-4.70
2022-12-18T00:57:07.271Z,-4.80
2022-12-18T00:59:34.335Z,-4.70
2022-12-18T01:02:01.455Z,-4.60
2022-12-18T01:04:32.919Z,-4.60
2022-12-18T01:07:00.074Z,-4.50
2022-12-18T01:09:32.514Z,-4.50
2022-12-18T01:11:59.387Z,-4.60
2022-12-18T01:14:26.467Z,-4.70
2022-12-18T01:16:55.548Z,-4.80
2022-12-18T01:19:23.384Z,-4.70
2022-12-18T01:21:50.663Z,-4.50
2022-12-18T01:24:19.519Z,-4.30
2022-12-18T01:26:46.217Z,-4.20
2022-12-18T01:29:14.195Z,-4.00
2022-12-18T01:31:41.141Z,-4.00
2022-12-18T01:34:08.127Z,-4.10
2022-12-18T01:36:38.675Z,-4.30
2022-12-18T01:39:08.815Z,-4.60
2022-12-18T01:41:55.454Z,-4.70
2022-12-18T01:44:58.256Z,-4.60
2022-12-18T01:47:34.071Z,-4.80
2022-12-18T01:50:22.992Z,-4.80
2022-12-18T01:53:01.341Z,-4.70
2022-12-18T01:55:33.138Z,-4.50
2022-12-18T01:58:02.066Z,-4.40
2022-12-18T02:00:32.292Z,-4.50
2022-12-18T02:02:59.204Z,-4.40
2022-12-18T02:05:49.237Z,-4.20
2022-12-18T02:08:31.297Z,-4.30
2022-12-18T02:11:06.434Z,-4.20
2022-12-18T02:13:53.686Z,-4.40
2022-12-18T02:16:30.430Z,-4.60
2022-12-18T02:19:04.939Z,-4.70
2022-12-18T02:21:31.610Z,-4.60
2022-12-18T02:24:32.479Z,-4.40
2022-12-18T02:27:03.879Z,-4.50
2022-12-18T02:29:38.586Z,-5.00
2022-12-18T02:32:12.674Z,-5.40
2022-12-18T02:34:41.558Z,-5.20
2022-12-18T02:37:13.875Z,-5.20
2022-12-18T02:39:44.208Z,-5.20
2022-12-18T02:42:13.439Z,-5.30
2022-12-18T02:44:49.235Z,-5.50
2022-12-18T02:47:21.058Z,-5.50
2022-12-18T02:50:13.332Z,-5.50
2022-12-18T02:52:55.324Z,-5.50
2022-12-18T02:55:53.461Z,-5.50
2022-12-18T02:58:27.403Z,-5.50
2022-12-18T03:01:03.446Z,-5.30
2022-12-18T03:03:47.890Z,-5.10
2022-12-18T03:06:33.120Z,-5.10
2022-12-18T03:09:15.714Z,-5.10
2022-12-18T03:12:08.255Z,-5.10
2022-12-18T03:14:37.660Z,-4.90
2022-12-18T03:17:17.489Z,-5.00
2022-12-18T03:19:44.707Z,-4.90
2022-12-18T03:22:11.891Z,-5.30
2022-12-18T03:24:40.501Z,-5.70
2022-12-18T03:27:12.418Z,-5.90
2022-12-18T03:29:43.542Z,-5.70
2022-12-18T03:32:21.862Z,-5.30
2022-12-18T03:34:51.851Z,-5.50
2022-12-18T03:37:18.558Z,-5.70
2022-12-18T03:39:50.980Z,-5.90
2022-12-18T03:42:52.512Z,-5.70
2022-12-18T03:45:46.521Z,-5.90
2022-12-18T03:48:44.557Z,-6.00
2022-12-18T03:51:27.364Z,-6.10
2022-12-18T03:54:00.519Z,-6.00
2022-12-18T03:56:33.198Z,-6.00
2022-12-18T03:59:02.783Z,-6.10
2022-12-18T04:01:34.322Z,-6.20
2022-12-18T04:04:02.978Z,-6.20
2022-12-18T04:06:31.572Z,-6.20
2022-12-18T04:08:59.528Z,-6.10
2022-12-18T04:11:26.549Z,-6.10
2022-12-18T04:13:58.283Z,-6.30
2022-12-18T04:16:26.520Z,-6.20
2022-12-18T04:18:53.891Z,-6.10
2022-12-18T04:21:21.168Z,-6.30
2022-12-18T04:23:48.047Z,-6.20
2022-12-18T04:26:15.104Z,-6.10
2022-12-18T04:28:43.812Z,-6.00
2022-12-18T04:31:10.974Z,-5.80
2022-12-18T04:33:38.315Z,-5.70
2022-12-18T04:36:06.962Z,-5.90
2022-12-18T04:38:35.778Z,-5.90
2022-12-18T04:41:03.623Z,-6.20
2022-12-18T04:43:30.692Z,-6.40
2022-12-18T04:46:08.352Z,-6.50
2022-12-18T04:48:36.275Z,-6.50
2022-12-18T04:51:05.600Z,-6.50
2022-12-18T04:53:33.014Z,-6.40
2022-12-18T04:56:15.177Z,-6.10
2022-12-18T04:58:43.938Z,-5.90
2022-12-18T05:01:12.969Z,-6.00
2022-12-18T05:03:40.219Z,-6.00
2022-12-18T05:06:08.451Z,-6.00
2022-12-18T05:08:35.531Z,-5.90
2022-12-18T05:11:04.980Z,-5.70
2022-12-18T05:13:34.337Z,-5.80
2022-12-18T05:16:01.553Z,-6.00
2022-12-18T05:18:28.848Z,-6.10
2022-12-18T05:20:55.871Z,-5.90
2022-12-18T05:23:24.329Z,-5.90
2022-12-18T05:26:00.567Z,-6.00
2022-12-18T05:28:30.395Z,-6.00
2022-12-18T05:30:59.882Z,-6.00
2022-12-18T05:33:30.981Z,-5.90
2022-12-18T05:36:00.017Z,-5.90
2022-12-18T05:38:28.247Z,-5.90
2022-12-18T05:40:55.398Z,-5.80
2022-12-18T05:43:25.387Z,-5.50
2022-12-18T05:45:53.997Z,-5.30
2022-12-18T05:48:21.689Z,-5.50
2022-12-18T05:50:50.534Z,-5.30
2022-12-18T05:53:20.637Z,-5.30
2022-12-18T05:55:48.026Z,-5.10
2022-12-18T05:58:15.868Z,-5.30
2022-12-18T06:00:45.747Z,-5.80
2022-12-18T06:03:14.651Z,-5.70
2022-12-18T06:05:46.889Z,-5.60
2022-12-18T06:08:14.344Z,-5.70
2022-12-18T06:10:41.762Z,-5.60
2022-12-18T06:13:09.107Z,-5.40
2022-12-18T06:15:39.154Z,-5.40
2022-12-18T06:18:06.110Z,-5.40
2022-12-18T06:20:33.891Z,-5.30
2022-12-18T06:23:03.423Z,-5.40
2022-12-18T06:25:30.130Z,-5.40
2022-12-18T06:27:57.103Z,-5.20
2022-12-18T06:30:23.746Z,-5.20
2022-12-18T06:32:56.843Z,-5.50
2022-12-18T06:35:29.776Z,-6.00
2022-12-18T06:37:56.820Z,-6.20
2022-12-18T06:40:25.471Z,-6.40
2022-12-18T06:42:52.510Z,-6.20
2022-12-18T06:45:19.990Z,-5.90
2022-12-18T06:47:47.836Z,-6.00
2022-12-18T06:50:14.747Z,-6.00
2022-12-18T06:52:41.558Z,-6.10
2022-12-18T06:55:09.228Z,-6.10
2022-12-18T06:57:36.188Z,-6.00
2022-12-18T07:00:17.816Z,-6.00
2022-12-18T07:02:44.807Z,-6.10
2022-12-18T07:05:11.848Z,-6.20
2022-12-18T07:07:39.046Z,-6.20
2022-12-18T07:10:06.243Z,-6.20
2022-12-18T07:12:32.995Z,-6.30
2022-12-18T07:15:00.050Z,-6.20
2022-12-18T07:17:27.342Z,-6.00
2022-12-18T07:19:54.220Z,-6.00
2022-12-18T07:22:21.274Z,-6.00
2022-12-18T07:24:51.071Z,-5.90
2022-12-18T07:27:17.844Z,-5.90
2022-12-18T07:29:44.829Z,-5.90
2022-12-18T07:32:12.049Z,-5.90
2022-12-18T07:34:39.703Z,-5.80
2022-12-18T07:37:06.836Z,-5.80
2022-12-18T07:39:33.854Z,-5.90
2022-12-18T07:42:27.303Z,-5.90
2022-12-18T07:44:54.912Z,-6.00
2022-12-18T07:47:21.961Z,-5.90
2022-12-18T07:49:49.253Z,-5.80
2022-12-18T07:52:16.187Z,-5.70
2022-12-18T07:54:43.235Z,-5.60
2022-12-18T07:57:33.730Z,-5.70
2022-12-18T07:59:57.039Z,-5.90
2022-12-18T08:02:24.037Z,-6.00
2022-12-18T08:04:50.959Z,-6.00
2022-12-18T08:07:18.015Z,-6.10
2022-12-18T08:09:45.088Z,-5.80
2022-12-18T08:12:12.091Z,-5.60
2022-12-18T08:14:38.729Z,-5.60
2022-12-18T08:17:05.431Z,-5.60
2022-12-18T08:19:32.424Z,-5.40
2022-12-18T08:21:59.090Z,-5.10
2022-12-18T08:24:26.623Z,-4.90
2022-12-18T08:27:13.457Z,-4.80
2022-12-18T08:29:40.316Z,-4.70
2022-12-18T08:32:07.541Z,-4.40
2022-12-18T08:34:34.439Z,-4.40
2022-12-18T08:37:01.768Z,-4.20
2022-12-18T08:39:28.496Z,-3.90
2022-12-18T08:42:14.447Z,-3.90
2022-12-18T08:44:42.139Z,-3.80
2022-12-18T08:47:09.370Z,-3.80
2022-12-18T08:49:36.584Z,-3.60
2022-12-18T08:52:03.893Z,-3.50
2022-12-18T08:54:31.133Z,-3.30
2022-12-18T08:56:57.962Z,-3.40
2022-12-18T08:59:24.968Z,-3.10
2022-12-18T09:01:54.392Z,-3.00
2022-12-18T09:04:21.593Z,-2.90
2022-12-18T09:06:48.547Z,-2.70
2022-12-18T09:09:15.600Z,-2.70
2022-12-18T09:11:42.757Z,-2.60
2022-12-18T09:14:10.986Z,-2.60
2022-12-18T09:16:38.404Z,-2.60
2022-12-18T09:19:06.545Z,-2.60
2022-12-18T09:21:36.948Z,-2.50
2022-12-18T09:24:05.010Z,-2.40
2022-12-18T09:26:36.408Z,-2.20
2022-12-18T09:29:04.166Z,-1.80
2022-12-18T09:31:31.108Z,-1.50
2022-12-18T09:33:57.959Z,-1.40
2022-12-18T09:36:25.040Z,-1.50
2022-12-18T09:38:52.201Z,-1.40
2022-12-18T09:41:27.439Z,-1.30
2022-12-18T09:44:02.357Z,-1.10
2022-12-18T09:46:39.388Z,-1.10
2022-12-18T09:49:13.624Z,-1.10
2022-12-18T09:51:51.938Z,-1.10
2022-12-18T09:54:32.724Z,-0.90
2022-12-18T09:56:59.636Z,-0.80
2022-12-18T09:59:40.678Z,-0.60
2022-12-18T10:02:19.021Z,-0.60
2022-12-18T10:05:01.335Z,-0.50
2022-12-18T10:07:37.003Z,-0.60
2022-12-18T10:10:15.450Z,-0.40
2022-12-18T10:13:02.678Z,-0.50
2022-12-18T10:15:44.796Z,-0.40
2022-12-18T10:18:40.375Z,-0.20
2022-12-18T10:21:16.588Z,0.20
2022-12-18T10:24:09.205Z,0.20
2022-12-18T10:26:36.075Z,0.40
2022-12-18T10:29:11.316Z,0.40
2022-12-18T10:31:38.418Z,0.40
2022-12-18T10:34:05.616Z,0.60
2022-12-18T10:36:32.464Z,0.50
2022-12-18T10:39:16.774Z,0.30
2022-12-18T10:41:43.799Z,0.30
2022-12-18T10:44:24.177Z,0.30
2022-12-18T10:46:56.993Z,0.30
2022-12-18T10:49:29.634Z,0.30
2022-12-18T10:52:17.758Z,0.40
2022-12-18T10:54:56.424Z,0.50
2022-12-18T10:57:42.515Z,0.60
2022-12-18T11:00:25.684Z,0.60
2022-12-18T11:02:53.260Z,0.60
2022-12-18T11:05:32.560Z,0.60
2022-12-18T11:08:01.357Z,0.70
2022-12-18T11:10:38.067Z,0.70
2022-12-18T11:13:19.673Z,0.70
2022-12-18T11:15:46.989Z,0.60
2022-12-18T11:18:35.556Z,0.50
2022-12-18T11:21:12.207Z,0.50
2022-12-18T11:23:54.868Z,0.30
2022-12-18T11:26:22.739Z,0.30
2022-12-18T11:29:08.155Z,0.40
2022-12-18T11:31:35.292Z,0.30
2022-12-18T11:34:30.476Z,0.50
2022-12-18T11:37:00.550Z,0.50
2022-12-18T11:39:33.688Z,0.50
2022-12-18T11:42:45.676Z,0.60
2022-12-18T11:45:13.665Z,0.60
2022-12-18T11:47:58.060Z,0.50
2022-12-18T11:50:53.380Z,0.70
2022-12-18T11:53:20.863Z,0.80
2022-12-18T11:56:16.462Z,0.80
2022-12-18T11:58:51.205Z,0.80
2022-12-18T12:01:47.177Z,0.80
2022-12-18T12:04:42.389Z,0.80
2022-12-18T12:07:41.304Z,0.90
2022-12-18T12:10:17.959Z,0.90
2022-12-18T12:13:12.926Z,1.00
2022-12-18T12:16:10.659Z,1.00
2022-12-18T12:18:37.619Z,0.90
2022-12-18T12:21:04.655Z,1.10
2022-12-18T12:23:53.763Z,1.20
2022-12-18T12:26:29.522Z,1.10
2022-12-18T12:29:03.861Z,1.10
2022-12-18T12:31:55.637Z,1.10
2022-12-18T12:34:35.740Z,1.10
2022-12-18T12:37:08.379Z,1.00
2022-12-18T12:39:41.709Z,1.00
2022-12-18T12:42:58.388Z,1.00
2022-12-18T12:45:49.248Z,0.80
2022-12-18T12:48:48.864Z,0.90
2022-12-18T12:51:16.885Z,0.90
2022-12-18T12:53:46.084Z,1.00
2022-12-18T12:56:16.737Z,1.00
2022-12-18T12:59:07.509Z,0.90
2022-12-18T13:01:42.636Z,1.00
2022-12-18T13:04:28.011Z,1.00
2022-12-18T13:07:33.575Z,1.00
2022-12-18T13:10:27.071Z,0.90
2022-12-18T13:12:56.999Z,0.90
2022-12-18T13:15:30.507Z,0.80
2022-12-18T13:18:11.492Z,0.80
2022-12-18T13:21:04.463Z,0.80
2022-12-18T13:23:39.746Z,1.00
2022-12-18T13:26:34.048Z,0.90
2022-12-18T13:29:02.956Z,0.90
2022-12-18T13:31:42.578Z,0.80
2022-12-18T13:34:27.883Z,1.00
2022-12-18T13:37:20.147Z,1.10
2022-12-18T13:39:47.084Z,1.20
2022-12-18T13:42:34.437Z,1.30
2022-12-18T13:45:01.799Z,1.20
2022-12-18T13:47:33.062Z,1.10
2022-12-18T13:50:01.505Z,1.00
2022-12-18T13:52:37.907Z,1.00
2022-12-18T13:55:08.652Z,1.10
2022-12-18T13:57:38.812Z,1.20
2022-12-18T14:00:23.828Z,1.40
2022-12-18T14:02:51.321Z,1.40
2022-12-18T14:05:32.547Z,1.30
2022-12-18T14:08:15.277Z,1.20
2022-12-18T14:10:49.175Z,1.10
2022-12-18T14:13:36.611Z,0.80
2022-12-18T14:16:06.364Z,1.00
2022-12-18T14:19:15.243Z,1.10
2022-12-18T14:21:48.174Z,1.00
2022-12-18T14:24:20.855Z,1.10
2022-12-18T14:26:50.718Z,1.10
2022-12-18T14:29:20.825Z,1.00
2022-12-18T14:32:08.385Z,1.00
2022-12-18T14:34:37.688Z,0.80
2022-12-18T14:37:05.269Z,0.80
2022-12-18T14:39:32.300Z,0.90
2022-12-18T14:41:59.361Z,0.80
2022-12-18T14:44:28.630Z,0.60
2022-12-18T14:47:01.700Z,0.60
2022-12-18T14:49:35.215Z,0.70
2022-12-18T14:52:05.607Z,0.70
2022-12-18T14:54:36.168Z,0.70
2022-12-18T14:57:20.491Z,0.70
2022-12-18T14:59:47.435Z,0.60
2022-12-18T15:02:24.709Z,0.60
2022-12-18T15:05:30.892Z,0.80
2022-12-18T15:08:00.655Z,0.90
2022-12-18T15:10:28.827Z,0.70
2022-12-18T15:13:02.361Z,0.60
2022-12-18T15:15:38.522Z,0.50
2022-12-18T15:18:14.028Z,0.60
2022-12-18T15:20:45.167Z,0.60
2022-12-18T15:23:21.041Z,0.70
2022-12-18T15:25:49.783Z,0.60
2022-12-18T15:28:40.507Z,0.70
2022-12-18T15:31:24.439Z,0.70
2022-12-18T15:33:54.620Z,0.70
2022-12-18T15:36:26.843Z,0.70
2022-12-18T15:38:57.886Z,0.70
2022-12-18T15:41:35.994Z,0.80
2022-12-18T15:44:04.032Z,0.80
2022-12-18T15:46:31.753Z,0.70
2022-12-18T15:49:02.244Z,0.70
2022-12-18T15:51:37.676Z,0.60
2022-12-18T15:54:07.696Z,0.70
2022-12-18T15:56:53.145Z,0.70
2022-12-18T15:59:21.504Z,0.80
2022-12-18T16:01:50.524Z,0.80
2022-12-18T16:04:22.873Z,0.80
2022-12-18T16:07:14.028Z,0.80
2022-12-18T16:09:38.122Z,0.80
2022-12-18T16:12:05.703Z,0.90
2022-12-18T16:14:33.573Z,0.90
2022-12-18T16:17:06.995Z,0.80
2022-12-18T16:19:33.807Z,0.90
2022-12-18T16:22:00.488Z,0.90
2022-12-18T16:24:33.204Z,0.90
2022-12-18T16:27:01.399Z,1.00
2022-12-18T16:29:29.424Z,1.00
2022-12-18T16:32:00.452Z,0.90
2022-12-18T16:34:36.084Z,0.90
2022-12-18T16:37:06.716Z,1.00
2022-12-18T16:39:35.260Z,1.00
2022-12-18T16:42:13.472Z,1.10
2022-12-18T16:44:40.369Z,1.10
2022-12-18T16:47:08.279Z,1.00
2022-12-18T16:49:38.510Z,1.10
2022-12-18T16:52:06.324Z,1.10
2022-12-18T16:54:35.007Z,1.10
2022-12-18T16:57:01.879Z,1.10
2022-12-18T16:59:29.275Z,1.10
2022-12-18T17:01:57.360Z,1.10
2022-12-18T17:04:24.711Z,1.10
2022-12-18T17:06:53.753Z,1.10
2022-12-18T17:09:25.404Z,1.10
2022-12-18T17:11:53.924Z,1.00
2022-12-18T17:14:22.881Z,0.90
2022-12-18T17:17:19.146Z,0.80
2022-12-18T17:19:39.187Z,0.90
2022-12-18T17:22:07.963Z,0.90
2022-12-18T17:24:35.601Z,1.00
2022-12-18T17:27:03.947Z,1.00
2022-12-18T17:29:31.343Z,1.10
2022-12-18T17:31:58.727Z,1.00
2022-12-18T17:34:32.995Z,1.00
2022-12-18T17:37:00.388Z,1.00
2022-12-18T17:39:29.294Z,1.00
2022-12-18T17:41:56.784Z,1.10
2022-12-18T17:44:23.577Z,1.10
2022-12-18T17:46:50.689Z,1.00
2022-12-18T17:49:18.600Z,1.00
2022-12-18T17:51:45.535Z,1.00
2022-12-18T17:54:12.236Z,1.10
2022-12-18T17:56:39.778Z,1.10
2022-12-18T17:59:07.249Z,1.10
2022-12-18T18:01:38.449Z,1.00
2022-12-18T18:04:09.770Z,1.10
2022-12-18T18:06:38.847Z,1.10
2022-12-18T18:09:06.405Z,1.10
2022-12-18T18:11:55.079Z,1.10
2022-12-18T18:14:23.464Z,1.10
2022-12-18T18:16:52.428Z,1.10
2022-12-18T18:19:21.964Z,1.10
2022-12-18T18:21:52.424Z,1.20
2022-12-18T18:24:23.569Z,1.20
2022-12-18T18:26:50.559Z,1.20
2022-12-18T18:29:24.079Z,1.20
2022-12-18T18:31:54.696Z,1.20
2022-12-18T18:34:30.244Z,1.20
2022-12-18T18:36:57.260Z,1.20
2022-12-18T18:39:24.278Z,1.20
2022-12-18T18:41:51.812Z,1.20
2022-12-18T18:44:22.823Z,1.20
2022-12-18T18:46:57.302Z,1.20
2022-12-18T18:49:27.547Z,1.30
2022-12-18T18:51:56.709Z,1.30
2022-12-18T18:54:24.764Z,1.40
2022-12-18T18:59:38.705Z,1.40
2022-12-18T19:02:06.031Z,1.50
2022-12-18T19:04:34.168Z,1.60
2022-12-18T19:07:01.424Z,1.70
2022-12-18T19:09:28.713Z,1.70
2022-12-18T19:12:14.991Z,1.70
2022-12-18T19:14:42.631Z,1.80
2022-12-18T19:17:10.115Z,1.70
2022-12-18T19:19:37.172Z,1.70
2022-12-18T19:22:04.264Z,1.80
2022-12-18T19:24:31.416Z,1.80
2022-12-18T19:26:58.357Z,1.90
2022-12-18T19:29:25.440Z,1.90
2022-12-18T19:31:52.590Z,1.90
2022-12-18T19:34:19.471Z,1.90
2022-12-18T19:36:46.672Z,1.80
2022-12-18T19:39:19.299Z,1.80
2022-12-18T19:41:47.360Z,1.80
2022-12-18T19:44:17.960Z,1.80
2022-12-18T19:46:46.185Z,1.90
2022-12-18T19:49:17.537Z,1.90
2022-12-18T19:51:44.829Z,1.90
2022-12-18T19:54:16.734Z,1.90
2022-12-18T19:56:44.463Z,1.90
2022-12-18T19:59:11.225Z,2.10
2022-12-18T20:01:38.162Z,2.20
2022-12-18T20:04:05.565Z,2.10
2022-12-18T20:06:50.129Z,2.10
2022-12-18T20:09:17.690Z,2.20
2022-12-18T20:11:44.505Z,2.10
2022-12-18T20:14:12.849Z,2.10
2022-12-18T20:16:40.479Z,2.20
2022-12-18T20:19:08.564Z,2.10
2022-12-18T20:21:36.315Z,2.20
2022-12-18T20:24:03.640Z,2.20
2022-12-18T20:26:30.663Z,2.20
2022-12-18T20:28:57.541Z,2.20
2022-12-18T20:31:25.106Z,2.10
2022-12-18T20:33:54.420Z,2.00
2022-12-18T20:36:23.419Z,2.00
2022-12-18T20:38:56.996Z,2.00
2022-12-18T20:41:25.237Z,2.10
2022-12-18T20:43:52.170Z,2.10
2022-12-18T20:46:19.315Z,2.10
2022-12-18T20:48:47.654Z,2.00
2022-12-18T20:51:17.696Z,2.10
2022-12-18T20:53:45.668Z,2.20
2022-12-18T20:56:21.560Z,2.30
2022-12-18T20:58:50.174Z,2.30
2022-12-18T21:01:20.857Z,2.30
2022-12-18T21:03:48.698Z,2.40
2022-12-18T21:06:18.120Z,2.40
2022-12-18T21:08:45.291Z,2.50
2022-12-18T21:11:34.825Z,2.30
2022-12-18T21:14:03.275Z,2.40
2022-12-18T21:16:30.151Z,2.40
2022-12-18T21:18:57.188Z,2.30
2022-12-18T21:21:27.060Z,2.50
2022-12-18T21:23:54.865Z,2.60
2022-12-18T21:26:25.091Z,2.60
2022-12-18T21:28:58.011Z,2.50
2022-12-18T21:31:27.828Z,2.60
2022-12-18T21:34:01.851Z,2.70
2022-12-18T21:36:30.509Z,2.70
2022-12-18T21:38:58.496Z,2.60
2022-12-18T21:41:44.803Z,2.70
2022-12-18T21:44:14.580Z,2.60
2022-12-18T21:46:44.044Z,2.60
2022-12-18T21:49:14.422Z,2.70
2022-12-18T21:51:41.434Z,2.70
2022-12-18T21:54:08.211Z,2.70
2022-12-18T21:56:49.841Z,2.90
2022-12-18T21:59:25.657Z,2.90
2022-12-18T22:01:54.828Z,2.90
2022-12-18T22:04:23.252Z,2.90
2022-12-18T22:06:50.896Z,2.90
2022-12-18T22:09:21.219Z,2.90
2022-12-18T22:11:49.130Z,2.90
2022-12-18T22:14:19.122Z,3.00
2022-12-18T22:16:46.454Z,3.00
2022-12-18T22:19:14.866Z,3.00
2022-12-18T22:21:45.875Z,3.00
2022-12-18T22:24:25.737Z,3.00
2022-12-18T22:27:01.842Z,3.00
2022-12-18T22:29:49.393Z,3.10
2022-12-18T22:32:17.825Z,3.20
2022-12-18T22:35:04.566Z,3.20
2022-12-18T22:37:32.985Z,3.20
2022-12-18T22:39:59.917Z,3.20
2022-12-18T22:42:31.041Z,3.30
2022-12-18T22:44:58.180Z,3.30
2022-12-18T22:47:29.462Z,3.30
2022-12-18T22:49:57.360Z,3.30
2022-12-18T22:52:25.023Z,3.40
2022-12-18T22:54:53.268Z,3.40
2022-12-18T22:57:21.822Z,3.50
2022-12-18T22:59:49.427Z,3.50
2022-12-18T23:02:17.723Z,3.60
2022-12-18T23:04:45.168Z,3.60
2022-12-18T23:07:12.574Z,3.70
2022-12-18T23:09:40.100Z,3.70
2022-12-18T23:12:07.504Z,3.70
2022-12-18T23:14:34.531Z,3.70
2022-12-18T23:17:02.446Z,3.80
2022-12-18T23:19:29.449Z,3.90
2022-12-18T23:21:58.592Z,3.90
2022-12-18T23:24:31.406Z,4.00
2022-12-18T23:26:59.620Z,4.00
2022-12-18T23:29:28.279Z,4.00
2022-12-18T23:31:55.073Z,4.00
2022-12-18T23:34:22.022Z,4.10
2022-12-18T23:36:52.038Z,4.20
2022-12-18T23:39:29.032Z,4.20
2022-12-18T23:41:58.654Z,4.20
2022-12-18T23:44:25.555Z,4.30
2022-12-18T23:46:52.729Z,4.30
2022-12-18T23:49:19.492Z,4.30
2022-12-18T23:51:47.342Z,4.30
2022-12-18T23:54:14.364Z,4.40
2022-12-18T23:56:41.468Z,4.40
2022-12-18T23:59:08.517Z,4.50
